sensor_id;sensor_type;location;lat;lon;timestamp;P1;durP1;ratioP1;P2;durP2;ratioP2
69625;SDS011;56847;51.984;5.088;2023-03-23T00:01:26;13.47;;;5.07;;
69625;SDS011;56847;51.984;5.088;2023-03-23T00:03:56;9.77;;;5.25;;
69625;SDS011;56847;51.984;5.088;2023-03-23T00:06:24;10.02;;;5.75;;
69625;SDS011;56847;51.984;5.088;2023-03-23T00:08:52;10.63;;;5.35;;
69625;SDS011;56847;51.984;5.088;2023-03-23T00:11:28;13.13;;;5.90;;
69625;SDS011;56847;51.984;5.088;2023-03-23T00:13:55;9.87;;;4.97;;
69625;SDS011;56847;51.984;5.088;2023-03-23T00:16:24;11.10;;;4.88;;
69625;SDS011;56847;51.984;5.088;2023-03-23T00:19:06;7.65;;;4.97;;
69625;SDS011;56847;51.984;5.088;2023-03-23T00:21:34;8.82;;;5.25;;
69625;SDS011;56847;51.984;5.088;2023-03-23T00:26:36;9.47;;;4.83;;
69625;SDS011;56847;51.984;5.088;2023-03-23T00:29:12;12.02;;;4.88;;
69625;SDS011;56847;51.984;5.088;2023-03-23T00:31:40;10.00;;;4.50;;
69625;SDS011;56847;51.984;5.088;2023-03-23T00:34:12;13.00;;;4.50;;
69625;SDS011;56847;51.984;5.088;2023-03-23T00:36:50;11.95;;;4.57;;
69625;SDS011;56847;51.984;5.088;2023-03-23T00:39:22;7.80;;;4.23;;
69625;SDS011;56847;51.984;5.088;2023-03-23T00:41:50;10.90;;;3.85;;
69625;SDS011;56847;51.984;5.088;2023-03-23T00:44:16;6.88;;;3.88;;
69625;SDS011;56847;51.984;5.088;2023-03-23T00:46:43;7.60;;;4.68;;
69625;SDS011;56847;51.984;5.088;2023-03-23T00:49:14;6.03;;;3.10;;
69625;SDS011;56847;51.984;5.088;2023-03-23T00:51:45;4.93;;;3.20;;
69625;SDS011;56847;51.984;5.088;2023-03-23T00:54:11;6.05;;;4.28;;
69625;SDS011;56847;51.984;5.088;2023-03-23T00:56:37;10.38;;;4.75;;
69625;SDS011;56847;51.984;5.088;2023-03-23T00:59:06;7.30;;;4.53;;
69625;SDS011;56847;51.984;5.088;2023-03-23T01:01:36;6.10;;;3.93;;
69625;SDS011;56847;51.984;5.088;2023-03-23T01:04:02;8.15;;;4.50;;
69625;SDS011;56847;51.984;5.088;2023-03-23T01:06:32;7.10;;;4.43;;
69625;SDS011;56847;51.984;5.088;2023-03-23T01:09:10;9.48;;;4.50;;
69625;SDS011;56847;51.984;5.088;2023-03-23T01:11:42;7.97;;;4.53;;
69625;SDS011;56847;51.984;5.088;2023-03-23T01:14:09;10.50;;;4.13;;
69625;SDS011;56847;51.984;5.088;2023-03-23T01:16:37;7.80;;;4.90;;
69625;SDS011;56847;51.984;5.088;2023-03-23T01:19:03;10.07;;;4.38;;
69625;SDS011;56847;51.984;5.088;2023-03-23T01:21:29;9.40;;;4.68;;
69625;SDS011;56847;51.984;5.088;2023-03-23T01:23:55;7.87;;;4.33;;
69625;SDS011;56847;51.984;5.088;2023-03-23T01:26:22;4.97;;;3.80;;
69625;SDS011;56847;51.984;5.088;2023-03-23T01:28:50;5.65;;;4.15;;
69625;SDS011;56847;51.984;5.088;2023-03-23T01:31:17;8.95;;;4.70;;
69625;SDS011;56847;51.984;5.088;2023-03-23T01:33:45;5.45;;;4.70;;
69625;SDS011;56847;51.984;5.088;2023-03-23T01:36:13;7.40;;;4.40;;
69625;SDS011;56847;51.984;5.088;2023-03-23T01:38:42;5.93;;;4.57;;
69625;SDS011;56847;51.984;5.088;2023-03-23T01:41:10;5.80;;;4.20;;
69625;SDS011;56847;51.984;5.088;2023-03-23T01:43:58;8.73;;;4.20;;
69625;SDS011;56847;51.984;5.088;2023-03-23T01:47:04;7.70;;;4.50;;
69625;SDS011;56847;51.984;5.088;2023-03-23T01:49:34;7.60;;;4.53;;
69625;SDS011;56847;51.984;5.088;2023-03-23T01:52:07;5.25;;;4.60;;
69625;SDS011;56847;51.984;5.088;2023-03-23T01:54:43;6.47;;;4.50;;
69625;SDS011;56847;51.984;5.088;2023-03-23T01:57:13;8.35;;;4.85;;
69625;SDS011;56847;51.984;5.088;2023-03-23T01:59:45;11.95;;;4.38;;
69625;SDS011;56847;51.984;5.088;2023-03-23T02:02:22;6.13;;;4.00;;
69625;SDS011;56847;51.984;5.088;2023-03-23T02:04:51;6.43;;;4.20;;
69625;SDS011;56847;51.984;5.088;2023-03-23T02:07:20;6.95;;;3.80;;
69625;SDS011;56847;51.984;5.088;2023-03-23T02:09:51;6.13;;;4.40;;
69625;SDS011;56847;51.984;5.088;2023-03-23T02:12:17;8.00;;;4.30;;
69625;SDS011;56847;51.984;5.088;2023-03-23T02:14:45;10.67;;;4.50;;
69625;SDS011;56847;51.984;5.088;2023-03-23T02:28:31;5.25;;;3.03;;
69625;SDS011;56847;51.984;5.088;2023-03-23T02:31:37;5.00;;;3.95;;
69625;SDS011;56847;51.984;5.088;2023-03-23T02:34:16;5.07;;;3.17;;
69625;SDS011;56847;51.984;5.088;2023-03-23T02:39:29;6.73;;;3.67;;
69625;SDS011;56847;51.984;5.088;2023-03-23T02:42:01;8.25;;;3.83;;
69625;SDS011;56847;51.984;5.088;2023-03-23T02:44:30;9.25;;;3.80;;
69625;SDS011;56847;51.984;5.088;2023-03-23T02:46:57;5.47;;;3.55;;
69625;SDS011;56847;51.984;5.088;2023-03-23T02:49:26;6.25;;;3.20;;
69625;SDS011;56847;51.984;5.088;2023-03-23T02:51:56;8.33;;;3.03;;
69625;SDS011;56847;51.984;5.088;2023-03-23T02:54:25;7.43;;;3.53;;
69625;SDS011;56847;51.984;5.088;2023-03-23T02:56:53;7.05;;;3.70;;
69625;SDS011;56847;51.984;5.088;2023-03-23T02:59:25;8.63;;;2.72;;
69625;SDS011;56847;51.984;5.088;2023-03-23T03:01:53;6.30;;;3.58;;
69625;SDS011;56847;51.984;5.088;2023-03-23T03:04:25;5.03;;;2.70;;
69625;SDS011;56847;51.984;5.088;2023-03-23T03:09:45;5.50;;;3.17;;
69625;SDS011;56847;51.984;5.088;2023-03-23T03:12:13;4.50;;;2.78;;
69625;SDS011;56847;51.984;5.088;2023-03-23T03:17:36;5.03;;;3.20;;
69625;SDS011;56847;51.984;5.088;2023-03-23T03:20:11;5.03;;;2.72;;
69625;SDS011;56847;51.984;5.088;2023-03-23T03:22:43;5.35;;;3.40;;
69625;SDS011;56847;51.984;5.088;2023-03-23T03:25:10;4.55;;;2.75;;
69625;SDS011;56847;51.984;5.088;2023-03-23T03:27:42;6.43;;;3.40;;
69625;SDS011;56847;51.984;5.088;2023-03-23T03:30:17;5.47;;;2.77;;
69625;SDS011;56847;51.984;5.088;2023-03-23T03:32:48;6.40;;;2.90;;
69625;SDS011;56847;51.984;5.088;2023-03-23T03:35:20;6.25;;;3.13;;
69625;SDS011;56847;51.984;5.088;2023-03-23T03:37:48;7.05;;;2.70;;
69625;SDS011;56847;51.984;5.088;2023-03-23T03:40:18;4.22;;;3.00;;
69625;SDS011;56847;51.984;5.088;2023-03-23T03:42:45;5.47;;;2.57;;
69625;SDS011;56847;51.984;5.088;2023-03-23T03:45:13;3.78;;;2.75;;
69625;SDS011;56847;51.984;5.088;2023-03-23T03:47:40;5.63;;;2.67;;
69625;SDS011;56847;51.984;5.088;2023-03-23T03:50:07;4.47;;;2.33;;
69625;SDS011;56847;51.984;5.088;2023-03-23T03:52:34;3.80;;;2.10;;
69625;SDS011;56847;51.984;5.088;2023-03-23T03:55:00;4.90;;;2.83;;
69625;SDS011;56847;51.984;5.088;2023-03-23T03:57:28;5.90;;;3.40;;
69625;SDS011;56847;51.984;5.088;2023-03-23T03:59:56;7.43;;;3.33;;
69625;SDS011;56847;51.984;5.088;2023-03-23T04:02:39;6.70;;;2.55;;
69625;SDS011;56847;51.984;5.088;2023-03-23T04:05:10;9.40;;;2.78;;
69625;SDS011;56847;51.984;5.088;2023-03-23T04:07:37;7.53;;;3.00;;
69625;SDS011;56847;51.984;5.088;2023-03-23T04:10:08;6.40;;;2.83;;
69625;SDS011;56847;51.984;5.088;2023-03-23T04:12:38;7.70;;;2.50;;
69625;SDS011;56847;51.984;5.088;2023-03-23T04:15:23;7.75;;;3.28;;
69625;SDS011;56847;51.984;5.088;2023-03-23T04:17:50;9.55;;;3.10;;
69625;SDS011;56847;51.984;5.088;2023-03-23T04:20:15;4.90;;;2.60;;
69625;SDS011;56847;51.984;5.088;2023-03-23T04:22:47;6.60;;;3.30;;
69625;SDS011;56847;51.984;5.088;2023-03-23T04:25:18;5.70;;;2.50;;
69625;SDS011;56847;51.984;5.088;2023-03-23T04:27:51;15.10;;;2.75;;
69625;SDS011;56847;51.984;5.088;2023-03-23T04:30:25;7.13;;;2.60;;
69625;SDS011;56847;51.984;5.088;2023-03-23T04:33:07;6.38;;;2.35;;
69625;SDS011;56847;51.984;5.088;2023-03-23T04:35:34;10.48;;;2.92;;
69625;SDS011;56847;51.984;5.088;2023-03-23T04:38:14;8.15;;;2.72;;
69625;SDS011;56847;51.984;5.088;2023-03-23T04:40:46;8.90;;;2.47;;
69625;SDS011;56847;51.984;5.088;2023-03-23T04:43:23;10.53;;;2.10;;
69625;SDS011;56847;51.984;5.088;2023-03-23T04:45:59;9.02;;;2.25;;
69625;SDS011;56847;51.984;5.088;2023-03-23T04:48:31;8.30;;;2.25;;
69625;SDS011;56847;51.984;5.088;2023-03-23T04:51:08;7.82;;;2.50;;
69625;SDS011;56847;51.984;5.088;2023-03-23T04:53:35;5.40;;;2.63;;
69625;SDS011;56847;51.984;5.088;2023-03-23T04:56:01;8.87;;;2.67;;
69625;SDS011;56847;51.984;5.088;2023-03-23T04:58:33;7.55;;;2.58;;
69625;SDS011;56847;51.984;5.088;2023-03-23T05:01:08;10.43;;;3.38;;
69625;SDS011;56847;51.984;5.088;2023-03-23T05:03:42;9.68;;;2.70;;
69625;SDS011;56847;51.984;5.088;2023-03-23T05:06:09;11.27;;;3.08;;
69625;SDS011;56847;51.984;5.088;2023-03-23T05:08:35;14.67;;;3.10;;
69625;SDS011;56847;51.984;5.088;2023-03-23T05:11:05;9.90;;;2.70;;
69625;SDS011;56847;51.984;5.088;2023-03-23T05:13:35;8.23;;;2.40;;
69625;SDS011;56847;51.984;5.088;2023-03-23T05:16:04;8.38;;;2.55;;
69625;SDS011;56847;51.984;5.088;2023-03-23T05:18:32;7.70;;;2.67;;
69625;SDS011;56847;51.984;5.088;2023-03-23T05:21:00;12.45;;;3.17;;
69625;SDS011;56847;51.984;5.088;2023-03-23T05:23:31;12.23;;;3.42;;
69625;SDS011;56847;51.984;5.088;2023-03-23T05:26:05;13.23;;;3.70;;
69625;SDS011;56847;51.984;5.088;2023-03-23T05:28:32;10.48;;;2.90;;
69625;SDS011;56847;51.984;5.088;2023-03-23T05:31:24;12.60;;;2.87;;
69625;SDS011;56847;51.984;5.088;2023-03-23T05:33:51;9.35;;;2.05;;
69625;SDS011;56847;51.984;5.088;2023-03-23T05:36:43;12.95;;;3.13;;
69625;SDS011;56847;51.984;5.088;2023-03-23T05:39:30;7.50;;;2.55;;
69625;SDS011;56847;51.984;5.088;2023-03-23T05:42:16;15.23;;;2.65;;
69625;SDS011;56847;51.984;5.088;2023-03-23T05:44:49;7.20;;;3.07;;
69625;SDS011;56847;51.984;5.088;2023-03-23T06:20:01;12.90;;;3.45;;
69625;SDS011;56847;51.984;5.088;2023-03-23T06:22:30;6.67;;;3.07;;
69625;SDS011;56847;51.984;5.088;2023-03-23T06:25:06;9.73;;;2.72;;
69625;SDS011;56847;51.984;5.088;2023-03-23T06:27:38;9.38;;;2.72;;
69625;SDS011;56847;51.984;5.088;2023-03-23T06:30:04;8.32;;;2.70;;
69625;SDS011;56847;51.984;5.088;2023-03-23T06:32:31;12.43;;;2.88;;
69625;SDS011;56847;51.984;5.088;2023-03-23T06:34:59;8.33;;;2.80;;
69625;SDS011;56847;51.984;5.088;2023-03-23T06:37:52;11.65;;;3.03;;
69625;SDS011;56847;51.984;5.088;2023-03-23T06:40:29;11.75;;;3.10;;
69625;SDS011;56847;51.984;5.088;2023-03-23T06:42:59;12.02;;;3.67;;
69625;SDS011;56847;51.984;5.088;2023-03-23T06:45:28;8.30;;;2.78;;
69625;SDS011;56847;51.984;5.088;2023-03-23T06:48:14;8.23;;;2.97;;
69625;SDS011;56847;51.984;5.088;2023-03-23T06:50:43;8.35;;;2.42;;
69625;SDS011;56847;51.984;5.088;2023-03-23T06:53:11;7.57;;;2.80;;
69625;SDS011;56847;51.984;5.088;2023-03-23T06:55:38;9.65;;;2.30;;
69625;SDS011;56847;51.984;5.088;2023-03-23T06:58:04;12.73;;;3.85;;
69625;SDS011;56847;51.984;5.088;2023-03-23T07:00:32;9.77;;;2.63;;
69625;SDS011;56847;51.984;5.088;2023-03-23T07:02:58;6.80;;;2.22;;
69625;SDS011;56847;51.984;5.088;2023-03-23T07:05:24;8.25;;;3.15;;
69625;SDS011;56847;51.984;5.088;2023-03-23T07:07:50;10.70;;;3.25;;
69625;SDS011;56847;51.984;5.088;2023-03-23T07:10:55;11.10;;;3.50;;
69625;SDS011;56847;51.984;5.088;2023-03-23T07:13:25;15.93;;;2.63;;
69625;SDS011;56847;51.984;5.088;2023-03-23T07:15:56;13.32;;;3.13;;
69625;SDS011;56847;51.984;5.088;2023-03-23T07:18:23;8.05;;;2.55;;
69625;SDS011;56847;51.984;5.088;2023-03-23T07:20:51;13.35;;;3.78;;
69625;SDS011;56847;51.984;5.088;2023-03-23T07:23:21;10.95;;;3.58;;
69625;SDS011;56847;51.984;5.088;2023-03-23T07:25:58;10.53;;;2.83;;
69625;SDS011;56847;51.984;5.088;2023-03-23T07:28:30;11.00;;;2.97;;
69625;SDS011;56847;51.984;5.088;2023-03-23T07:31:03;11.30;;;3.60;;
69625;SDS011;56847;51.984;5.088;2023-03-23T07:33:30;12.80;;;4.00;;
69625;SDS011;56847;51.984;5.088;2023-03-23T07:36:00;9.50;;;3.88;;
69625;SDS011;56847;51.984;5.088;2023-03-23T07:38:28;15.13;;;3.37;;
69625;SDS011;56847;51.984;5.088;2023-03-23T07:40:57;11.23;;;3.20;;
69625;SDS011;56847;51.984;5.088;2023-03-23T07:43:24;9.90;;;4.18;;
69625;SDS011;56847;51.984;5.088;2023-03-23T07:46:08;11.95;;;3.80;;
69625;SDS011;56847;51.984;5.088;2023-03-23T07:49:03;7.40;;;3.25;;
69625;SDS011;56847;51.984;5.088;2023-03-23T07:51:37;11.97;;;3.73;;
69625;SDS011;56847;51.984;5.088;2023-03-23T07:54:08;8.57;;;2.65;;
69625;SDS011;56847;51.984;5.088;2023-03-23T07:56:58;8.93;;;3.25;;
69625;SDS011;56847;51.984;5.088;2023-03-23T07:59:28;11.23;;;3.22;;
69625;SDS011;56847;51.984;5.088;2023-03-23T08:01:57;12.98;;;3.28;;
69625;SDS011;56847;51.984;5.088;2023-03-23T08:04:43;9.07;;;2.63;;
69625;SDS011;56847;51.984;5.088;2023-03-23T08:07:20;7.25;;;3.00;;
69625;SDS011;56847;51.984;5.088;2023-03-23T08:10:00;10.07;;;3.42;;
69625;SDS011;56847;51.984;5.088;2023-03-23T08:12:44;9.73;;;2.75;;
69625;SDS011;56847;51.984;5.088;2023-03-23T08:15:30;14.35;;;3.80;;
69625;SDS011;56847;51.984;5.088;2023-03-23T08:17:57;11.97;;;3.47;;
69625;SDS011;56847;51.984;5.088;2023-03-23T08:20:42;12.98;;;3.25;;
69625;SDS011;56847;51.984;5.088;2023-03-23T08:23:30;7.45;;;3.47;;
69625;SDS011;56847;51.984;5.088;2023-03-23T08:25:58;12.75;;;2.75;;
69625;SDS011;56847;51.984;5.088;2023-03-23T08:28:53;7.38;;;3.20;;
69625;SDS011;56847;51.984;5.088;2023-03-23T08:31:38;14.27;;;3.70;;
69625;SDS011;56847;51.984;5.088;2023-03-23T08:34:23;13.32;;;3.20;;
69625;SDS011;56847;51.984;5.088;2023-03-23T08:37:10;12.73;;;3.53;;
69625;SDS011;56847;51.984;5.088;2023-03-23T08:39:54;9.00;;;3.13;;
69625;SDS011;56847;51.984;5.088;2023-03-23T08:42:41;12.18;;;3.08;;
69625;SDS011;56847;51.984;5.088;2023-03-23T08:45:26;9.13;;;2.53;;
69625;SDS011;56847;51.984;5.088;2023-03-23T08:48:15;10.93;;;2.80;;
69625;SDS011;56847;51.984;5.088;2023-03-23T08:51:07;6.28;;;3.35;;
69625;SDS011;56847;51.984;5.088;2023-03-23T08:53:36;12.63;;;3.13;;
69625;SDS011;56847;51.984;5.088;2023-03-23T08:56:20;8.05;;;2.85;;
69625;SDS011;56847;51.984;5.088;2023-03-23T08:59:07;9.83;;;3.03;;
69625;SDS011;56847;51.984;5.088;2023-03-23T09:01:44;9.93;;;2.53;;
69625;SDS011;56847;51.984;5.088;2023-03-23T09:04:40;12.23;;;3.88;;
69625;SDS011;56847;51.984;5.088;2023-03-23T09:07:27;8.80;;;2.97;;
69625;SDS011;56847;51.984;5.088;2023-03-23T09:09:59;11.15;;;3.42;;
69625;SDS011;56847;51.984;5.088;2023-03-23T09:12:25;11.63;;;3.13;;
69625;SDS011;56847;51.984;5.088;2023-03-23T09:14:51;9.27;;;2.28;;
69625;SDS011;56847;51.984;5.088;2023-03-23T09:17:17;8.55;;;3.05;;
69625;SDS011;56847;51.984;5.088;2023-03-23T09:19:43;11.65;;;3.10;;
69625;SDS011;56847;51.984;5.088;2023-03-23T09:22:09;16.10;;;3.13;;
69625;SDS011;56847;51.984;5.088;2023-03-23T09:24:35;9.70;;;2.60;;
69625;SDS011;56847;51.984;5.088;2023-03-23T09:27:01;9.98;;;2.70;;
69625;SDS011;56847;51.984;5.088;2023-03-23T09:29:30;8.60;;;2.90;;
69625;SDS011;56847;51.984;5.088;2023-03-23T09:31:56;10.87;;;3.03;;
69625;SDS011;56847;51.984;5.088;2023-03-23T09:34:28;11.27;;;2.88;;
69625;SDS011;56847;51.984;5.088;2023-03-23T09:36:54;14.18;;;3.42;;
69625;SDS011;56847;51.984;5.088;2023-03-23T09:39:20;7.40;;;3.15;;
69625;SDS011;56847;51.984;5.088;2023-03-23T09:45:30;24.30;;;4.50;;
69625;SDS011;56847;51.984;5.088;2023-03-23T09:50:27;10.73;;;3.17;;
69625;SDS011;56847;51.984;5.088;2023-03-23T09:53:00;14.55;;;3.83;;
69625;SDS011;56847;51.984;5.088;2023-03-23T09:55:34;10.57;;;3.03;;
69625;SDS011;56847;51.984;5.088;2023-03-23T10:03:26;8.07;;;2.75;;
69625;SDS011;56847;51.984;5.088;2023-03-23T10:06:01;17.60;;;4.15;;
69625;SDS011;56847;51.984;5.088;2023-03-23T10:08:28;8.68;;;3.38;;
69625;SDS011;56847;51.984;5.088;2023-03-23T10:13:51;14.95;;;2.90;;
69625;SDS011;56847;51.984;5.088;2023-03-23T10:16:30;16.13;;;3.88;;
69625;SDS011;56847;51.984;5.088;2023-03-23T10:21:52;11.18;;;3.83;;
69625;SDS011;56847;51.984;5.088;2023-03-23T10:24:26;10.10;;;4.60;;
69625;SDS011;56847;51.984;5.088;2023-03-23T10:27:18;8.75;;;2.67;;
69625;SDS011;56847;51.984;5.088;2023-03-23T10:29:59;8.25;;;3.00;;
69625;SDS011;56847;51.984;5.088;2023-03-23T10:35:28;13.23;;;3.42;;
69625;SDS011;56847;51.984;5.088;2023-03-23T10:38:00;14.17;;;4.00;;
69625;SDS011;56847;51.984;5.088;2023-03-23T10:40:34;11.35;;;3.22;;
69625;SDS011;56847;51.984;5.088;2023-03-23T10:43:11;16.33;;;5.40;;
69625;SDS011;56847;51.984;5.088;2023-03-23T10:45:45;16.75;;;4.53;;
69625;SDS011;56847;51.984;5.088;2023-03-23T10:48:36;16.75;;;6.38;;
69625;SDS011;56847;51.984;5.088;2023-03-23T10:51:09;13.70;;;4.40;;
69625;SDS011;56847;51.984;5.088;2023-03-23T10:53:42;13.85;;;3.80;;
69625;SDS011;56847;51.984;5.088;2023-03-23T10:56:24;13.65;;;3.55;;
69625;SDS011;56847;51.984;5.088;2023-03-23T10:58:59;15.43;;;3.75;;
69625;SDS011;56847;51.984;5.088;2023-03-23T11:01:42;15.70;;;4.32;;
69625;SDS011;56847;51.984;5.088;2023-03-23T11:04:13;13.97;;;3.60;;
69625;SDS011;56847;51.984;5.088;2023-03-23T11:06:45;14.73;;;3.90;;
69625;SDS011;56847;51.984;5.088;2023-03-23T11:09:14;16.92;;;3.25;;
69625;SDS011;56847;51.984;5.088;2023-03-23T11:11:43;12.60;;;3.33;;
69625;SDS011;56847;51.984;5.088;2023-03-23T11:14:16;14.45;;;3.10;;
69625;SDS011;56847;51.984;5.088;2023-03-23T11:17:00;14.90;;;4.00;;
69625;SDS011;56847;51.984;5.088;2023-03-23T11:19:33;11.30;;;2.65;;
69625;SDS011;56847;51.984;5.088;2023-03-23T11:24:34;19.40;;;4.05;;
69625;SDS011;56847;51.984;5.088;2023-03-23T11:27:06;11.20;;;3.20;;
69625;SDS011;56847;51.984;5.088;2023-03-23T11:29:34;12.07;;;2.83;;
69625;SDS011;56847;51.984;5.088;2023-03-23T11:32:04;16.80;;;3.80;;
69625;SDS011;56847;51.984;5.088;2023-03-23T11:34:41;15.70;;;2.97;;
69625;SDS011;56847;51.984;5.088;2023-03-23T11:42:21;14.53;;;3.37;;
69625;SDS011;56847;51.984;5.088;2023-03-23T11:50:53;20.30;;;4.00;;
69625;SDS011;56847;51.984;5.088;2023-03-23T11:53:42;10.95;;;2.97;;
69625;SDS011;56847;51.984;5.088;2023-03-23T11:56:33;22.90;;;4.07;;
69625;SDS011;56847;51.984;5.088;2023-03-23T11:59:02;18.70;;;4.50;;
69625;SDS011;56847;51.984;5.088;2023-03-23T12:01:46;12.57;;;2.97;;
69625;SDS011;56847;51.984;5.088;2023-03-23T12:07:32;11.02;;;3.42;;
69625;SDS011;56847;51.984;5.088;2023-03-23T12:15:50;9.18;;;2.92;;
69625;SDS011;56847;51.984;5.088;2023-03-23T12:21:06;13.20;;;3.33;;
69625;SDS011;56847;51.984;5.088;2023-03-23T12:23:50;10.17;;;3.30;;
69625;SDS011;56847;51.984;5.088;2023-03-23T12:26:33;16.60;;;3.70;;
69625;SDS011;56847;51.984;5.088;2023-03-23T12:29:07;12.35;;;3.13;;
69625;SDS011;56847;51.984;5.088;2023-03-23T12:45:48;9.90;;;3.10;;
69625;SDS011;56847;51.984;5.088;2023-03-23T12:48:39;7.65;;;3.17;;
69625;SDS011;56847;51.984;5.088;2023-03-23T12:54:01;7.82;;;3.03;;
69625;SDS011;56847;51.984;5.088;2023-03-23T12:59:39;8.02;;;3.28;;
69625;SDS011;56847;51.984;5.088;2023-03-23T13:04:56;8.30;;;2.70;;
69625;SDS011;56847;51.984;5.088;2023-03-23T13:07:32;5.45;;;2.28;;
69625;SDS011;56847;51.984;5.088;2023-03-23T13:12:48;12.85;;;3.20;;
69625;SDS011;56847;51.984;5.088;2023-03-23T13:18:11;16.07;;;4.03;;
69625;SDS011;56847;51.984;5.088;2023-03-23T13:23:49;11.25;;;3.03;;
69625;SDS011;56847;51.984;5.088;2023-03-23T13:26:22;9.90;;;2.60;;
69625;SDS011;56847;51.984;5.088;2023-03-23T13:31:43;10.37;;;2.83;;
69625;SDS011;56847;51.984;5.088;2023-03-23T13:42:26;14.50;;;4.28;;
69625;SDS011;56847;51.984;5.088;2023-03-23T13:45:06;6.80;;;3.60;;
69625;SDS011;56847;51.984;5.088;2023-03-23T13:47:43;7.60;;;2.63;;
69625;SDS011;56847;51.984;5.088;2023-03-23T13:57:56;10.00;;;3.43;;
69625;SDS011;56847;51.984;5.088;2023-03-23T14:01:17;8.45;;;3.60;;
69625;SDS011;56847;51.984;5.088;2023-03-23T14:03:36;9.45;;;3.60;;
69625;SDS011;56847;51.984;5.088;2023-03-23T14:06:07;5.65;;;2.95;;
69625;SDS011;56847;51.984;5.088;2023-03-23T14:14:55;9.70;;;3.30;;
69625;SDS011;56847;51.984;5.088;2023-03-23T14:17:28;10.25;;;3.05;;
69625;SDS011;56847;51.984;5.088;2023-03-23T14:19:58;10.25;;;3.45;;
69625;SDS011;56847;51.984;5.088;2023-03-23T14:22:36;12.75;;;3.50;;
69625;SDS011;56847;51.984;5.088;2023-03-23T14:25:16;13.37;;;2.90;;
69625;SDS011;56847;51.984;5.088;2023-03-23T14:27:46;7.45;;;2.85;;
69625;SDS011;56847;51.984;5.088;2023-03-23T14:30:17;9.30;;;3.13;;
69625;SDS011;56847;51.984;5.088;2023-03-23T14:32:47;12.68;;;3.55;;
69625;SDS011;56847;51.984;5.088;2023-03-23T14:35:30;7.45;;;3.08;;
69625;SDS011;56847;51.984;5.088;2023-03-23T14:37:58;6.57;;;2.77;;
69625;SDS011;56847;51.984;5.088;2023-03-23T14:40:25;6.50;;;2.38;;
69625;SDS011;56847;51.984;5.088;2023-03-23T14:42:53;11.18;;;3.13;;
69625;SDS011;56847;51.984;5.088;2023-03-23T14:45:20;11.93;;;3.47;;
69625;SDS011;56847;51.984;5.088;2023-03-23T14:47:51;9.30;;;2.33;;
69625;SDS011;56847;51.984;5.088;2023-03-23T14:50:38;8.07;;;2.75;;
69625;SDS011;56847;51.984;5.088;2023-03-23T14:53:12;8.63;;;3.00;;
69625;SDS011;56847;51.984;5.088;2023-03-23T14:55:50;9.73;;;3.20;;
69625;SDS011;56847;51.984;5.088;2023-03-23T14:58:19;12.60;;;3.67;;
69625;SDS011;56847;51.984;5.088;2023-03-23T15:00:53;9.83;;;2.70;;
69625;SDS011;56847;51.984;5.088;2023-03-23T15:03:20;13.40;;;3.65;;
69625;SDS011;56847;51.984;5.088;2023-03-23T15:05:51;12.60;;;3.13;;
69625;SDS011;56847;51.984;5.088;2023-03-23T15:08:28;10.35;;;2.80;;
69625;SDS011;56847;51.984;5.088;2023-03-23T15:13:31;10.93;;;2.10;;
69625;SDS011;56847;51.984;5.088;2023-03-23T15:16:15;10.25;;;4.45;;
69625;SDS011;56847;51.984;5.088;2023-03-23T15:19:04;17.70;;;4.20;;
69625;SDS011;56847;51.984;5.088;2023-03-23T15:21:48;8.20;;;2.95;;
69625;SDS011;56847;51.984;5.088;2023-03-23T15:24:20;14.80;;;4.30;;
69625;SDS011;56847;51.984;5.088;2023-03-23T15:27:09;12.80;;;4.07;;
69625;SDS011;56847;51.984;5.088;2023-03-23T15:29:45;12.57;;;2.80;;
69625;SDS011;56847;51.984;5.088;2023-03-23T15:32:13;17.65;;;4.28;;
69625;SDS011;56847;51.984;5.088;2023-03-23T15:34:48;6.70;;;3.17;;
69625;SDS011;56847;51.984;5.088;2023-03-23T15:37:25;19.80;;;3.42;;
69625;SDS011;56847;51.984;5.088;2023-03-23T15:39:56;13.77;;;2.73;;
69625;SDS011;56847;51.984;5.088;2023-03-23T15:42:28;11.20;;;3.15;;
69625;SDS011;56847;51.984;5.088;2023-03-23T15:45:05;14.38;;;3.38;;
69625;SDS011;56847;51.984;5.088;2023-03-23T15:50:14;13.55;;;3.72;;
69625;SDS011;56847;51.984;5.088;2023-03-23T15:52:42;13.13;;;3.33;;
69625;SDS011;56847;51.984;5.088;2023-03-23T15:55:21;14.45;;;3.65;;
69625;SDS011;56847;51.984;5.088;2023-03-23T15:57:51;14.63;;;3.72;;
69625;SDS011;56847;51.984;5.088;2023-03-23T16:00:20;9.18;;;2.47;;
69625;SDS011;56847;51.984;5.088;2023-03-23T16:02:53;14.68;;;3.88;;
69625;SDS011;56847;51.984;5.088;2023-03-23T16:05:23;19.93;;;4.37;;
69625;SDS011;56847;51.984;5.088;2023-03-23T16:07:53;16.73;;;4.30;;
69625;SDS011;56847;51.984;5.088;2023-03-23T16:10:21;15.00;;;4.30;;
69625;SDS011;56847;51.984;5.088;2023-03-23T16:12:48;11.95;;;3.75;;
69625;SDS011;56847;51.984;5.088;2023-03-23T16:15:16;14.00;;;3.58;;
69625;SDS011;56847;51.984;5.088;2023-03-23T16:17:43;18.70;;;3.53;;
69625;SDS011;56847;51.984;5.088;2023-03-23T16:22:41;16.50;;;4.43;;
69625;SDS011;56847;51.984;5.088;2023-03-23T16:25:08;17.75;;;4.03;;
69625;SDS011;56847;51.984;5.088;2023-03-23T16:27:37;13.15;;;4.07;;
69625;SDS011;56847;51.984;5.088;2023-03-23T16:30:11;13.13;;;3.90;;
69625;SDS011;56847;51.984;5.088;2023-03-23T16:32:44;10.23;;;3.75;;
69625;SDS011;56847;51.984;5.088;2023-03-23T16:35:12;15.40;;;4.20;;
69625;SDS011;56847;51.984;5.088;2023-03-23T16:37:46;15.70;;;3.65;;
69625;SDS011;56847;51.984;5.088;2023-03-23T16:40:34;15.40;;;4.43;;
69625;SDS011;56847;51.984;5.088;2023-03-23T16:43:05;16.87;;;3.47;;
69625;SDS011;56847;51.984;5.088;2023-03-23T16:45:38;5.63;;;3.10;;
69625;SDS011;56847;51.984;5.088;2023-03-23T16:48:10;11.82;;;3.17;;
69625;SDS011;56847;51.984;5.088;2023-03-23T16:50:38;16.83;;;4.20;;
69625;SDS011;56847;51.984;5.088;2023-03-23T16:53:06;13.02;;;3.75;;
69625;SDS011;56847;51.984;5.088;2023-03-23T16:55:37;17.67;;;3.73;;
69625;SDS011;56847;51.984;5.088;2023-03-23T16:58:05;14.57;;;3.65;;
69625;SDS011;56847;51.984;5.088;2023-03-23T17:00:44;12.32;;;3.97;;
69625;SDS011;56847;51.984;5.088;2023-03-23T17:03:13;11.45;;;3.83;;
69625;SDS011;56847;51.984;5.088;2023-03-23T17:05:45;16.52;;;3.42;;
69625;SDS011;56847;51.984;5.088;2023-03-23T17:08:14;12.23;;;3.10;;
69625;SDS011;56847;51.984;5.088;2023-03-23T17:10:42;13.95;;;3.70;;
69625;SDS011;56847;51.984;5.088;2023-03-23T17:13:10;8.05;;;3.15;;
69625;SDS011;56847;51.984;5.088;2023-03-23T17:15:41;12.35;;;3.45;;
69625;SDS011;56847;51.984;5.088;2023-03-23T17:18:12;11.25;;;4.43;;
69625;SDS011;56847;51.984;5.088;2023-03-23T17:20:41;8.27;;;3.00;;
69625;SDS011;56847;51.984;5.088;2023-03-23T17:23:09;8.90;;;2.83;;
69625;SDS011;56847;51.984;5.088;2023-03-23T17:25:42;9.65;;;3.58;;
69625;SDS011;56847;51.984;5.088;2023-03-23T17:28:11;13.98;;;4.07;;
69625;SDS011;56847;51.984;5.088;2023-03-23T17:30:39;17.25;;;4.05;;
69625;SDS011;56847;51.984;5.088;2023-03-23T17:33:09;12.23;;;3.67;;
69625;SDS011;56847;51.984;5.088;2023-03-23T17:35:37;12.73;;;3.50;;
69625;SDS011;56847;51.984;5.088;2023-03-23T17:38:04;11.02;;;2.95;;
69625;SDS011;56847;51.984;5.088;2023-03-23T17:40:32;9.30;;;3.22;;
69625;SDS011;56847;51.984;5.088;2023-03-23T17:42:59;8.93;;;3.13;;
69625;SDS011;56847;51.984;5.088;2023-03-23T17:45:26;10.67;;;3.80;;
69625;SDS011;56847;51.984;5.088;2023-03-23T17:47:56;11.30;;;3.58;;
69625;SDS011;56847;51.984;5.088;2023-03-23T17:50:23;12.25;;;3.55;;
69625;SDS011;56847;51.984;5.088;2023-03-23T17:52:50;10.85;;;3.30;;
69625;SDS011;56847;51.984;5.088;2023-03-23T17:55:17;11.27;;;4.05;;
69625;SDS011;56847;51.984;5.088;2023-03-23T17:57:47;14.73;;;2.60;;
69625;SDS011;56847;51.984;5.088;2023-03-23T18:00:16;12.55;;;3.40;;